Damra

DAMH · 阿尔及利亚

METAR DAMH · Damra

22 六月 06:00 LT
50m
使用的METAR站距离机场273 km。
罗盘
风向 的 风向 080° Damra 8/26
风: 13 kt, 4 beaufort

13 kt

改变
0 ft 1.000 2.000 3.000 4.000 5.000
Cloud Cloud Cloud Cloud
SCT 4.000
METAR DAUH 220500Z 08013KT 7000 SCT040 31/08 Q1011

METAR Damra - DAMH

该字段位于阿尔及利亚中。 该机场位于纬度29,23333和经度6,50000。 该机场有一条跑道: 8/26. 本场的ICAO机场代码为DAMH。 机场在Alger FIR中。

该航空气象观测是针对Oued Irara Airport在2024年6月22日 06:00, 当地时间进行的。

机场观察

风向为080°,速度为13 kt。

可见度为7 km。

有疏云,零星散落的云朵在4.000 ft的高度。 没有观察到天花板。

温度和风寒是31 °C。 露点为8 °C,相对湿度为24%。 海平面上的气压为1011 hPa (QNH)。

白天

今天,太阳从05:35升起,在19:36降落。 这适用于Damra,世界夏令时可能有所不同。 当地时间与世界标准时间之间的时差为+1 小时。 夏令时目前正在进行中。

公司介绍

我们没有关于这个机场的公司信息。

体会

到Vliegles.nl去找飞行课程,跳伞和其他飞行体验。 浏览页面,了解Damra附近所有可用的活动。 你也可以使用搜索功能来寻找你所在地附近的特定飞行课程、跳伞或其他飞行体验。

跑道

Id 标题 侧风 逆风 侧风 %
8/26 080°-260° 13 kt 0 %

逆风成分最大的方向会被突出显示,并用于横风计算。 这并不一定意味着这个方向在使用。

乌云

4.000 ft SCT 疏云,零星散落的云朵

温度 & 天气

温度 31 °C
露点 8 °C
相对湿度 24%
Kp-index 0 (0-9)

白天

日出
05:31
中午
12:37
日落
19:44 (12:54)

小工具

你想在你的网站上有一个关于Damra的当前航空天气(METAR)的小部件吗?

显示HTML代码
报告变更